createdAt,value
2022-10-18T00:00:55.294Z,102343.78
2022-10-18T00:05:58.231Z,102345.53
2022-10-18T00:11:00.142Z,102342.75
2022-10-18T00:16:04.554Z,102353.28
2022-10-18T00:21:10.648Z,102348.75
2022-10-18T00:26:17.064Z,102342.38
2022-10-18T00:31:21.836Z,102344.03
2022-10-18T00:36:24.960Z,102351.78
2022-10-18T00:41:29.632Z,102348.72
2022-10-18T00:46:36.491Z,102346.63
2022-10-18T00:51:44.226Z,102349.00
2022-10-18T00:56:46.480Z,102354.81
2022-10-18T01:01:48.162Z,102367.84
2022-10-18T01:07:10.778Z,102371.81
2022-10-18T01:12:43.187Z,102369.19
2022-10-18T01:18:11.028Z,102363.63
2022-10-18T01:23:24.803Z,102371.13
2022-10-18T01:33:37.043Z,102374.16
2022-10-18T01:38:41.148Z,102373.63
2022-10-18T01:43:48.573Z,102368.25
2022-10-18T01:48:58.931Z,102361.00
2022-10-18T01:54:01.320Z,102369.34
2022-10-18T01:59:41.494Z,102355.94
2022-10-18T02:05:14.884Z,102353.38
2022-10-18T02:10:16.720Z,102352.50
2022-10-18T02:15:24.678Z,102340.50
2022-10-18T02:20:42.200Z,102340.31
2022-10-18T02:25:50.346Z,102339.31
2022-10-18T02:31:27.882Z,102344.81
2022-10-18T02:36:46.620Z,102339.63
2022-10-18T02:41:52.692Z,102325.72
2022-10-18T02:46:56.610Z,102327.59
2022-10-18T02:51:59.342Z,102340.78
2022-10-18T02:57:07.218Z,102339.00
2022-10-18T03:07:32.135Z,102340.72
2022-10-18T03:12:36.744Z,102345.09
2022-10-18T03:17:38.960Z,102331.97
2022-10-18T03:22:43.206Z,102339.78
2022-10-18T03:27:48.617Z,102349.41
2022-10-18T03:33:14.853Z,102344.09
2022-10-18T03:38:17.966Z,102358.16
2022-10-18T03:43:24.718Z,102340.66
2022-10-18T03:48:33.423Z,102340.59
2022-10-18T03:53:36.024Z,102347.59
2022-10-18T03:58:39.153Z,102344.16
2022-10-18T04:03:44.635Z,102342.25
2022-10-18T04:08:47.620Z,102341.38
2022-10-18T04:14:23.347Z,102342.03
2022-10-18T04:19:30.414Z,102329.00
2022-10-18T04:24:33.402Z,102331.53
2022-10-18T04:29:47.587Z,102339.34
2022-10-18T04:34:53.483Z,102327.84
2022-10-18T04:39:56.353Z,102330.41
2022-10-18T04:44:58.827Z,102327.84
2022-10-18T04:50:04.027Z,102329.25
2022-10-18T04:55:09.662Z,102343.00
2022-10-18T05:00:12.368Z,102330.72
2022-10-18T05:05:16.138Z,102326.38
2022-10-18T05:10:32.050Z,102318.44
2022-10-18T05:15:39.704Z,102325.47
2022-10-18T05:20:41.645Z,102335.91
2022-10-18T05:26:01.178Z,102341.09
2022-10-18T05:31:09.243Z,102345.56
2022-10-18T05:36:12.270Z,102348.84
2022-10-18T05:41:15.084Z,102355.03
2022-10-18T05:46:19.654Z,102355.84
2022-10-18T05:51:21.900Z,102350.56
2022-10-18T05:56:23.875Z,102357.44
2022-10-18T06:01:33.660Z,102350.28
2022-10-18T06:06:41.190Z,102360.75
2022-10-18T06:11:43.868Z,102361.53
2022-10-18T06:16:45.633Z,102372.81
2022-10-18T06:21:54.653Z,102389.34
2022-10-18T06:26:57.982Z,102380.44
2022-10-18T06:32:00.673Z,102389.88
2022-10-18T06:37:03.112Z,102405.50
2022-10-18T06:42:04.930Z,102401.91
2022-10-18T06:47:14.152Z,102408.72
2022-10-18T06:52:20.914Z,102404.47
2022-10-18T06:57:22.600Z,102402.75
2022-10-18T07:02:24.237Z,102429.00
2022-10-18T07:07:25.998Z,102436.06
2022-10-18T07:12:28.912Z,102429.06
2022-10-18T07:17:32.122Z,102440.38
2022-10-18T07:22:34.195Z,102445.56
2022-10-18T07:27:40.539Z,102455.88
2022-10-18T07:32:44.974Z,102454.72
2022-10-18T07:37:46.950Z,102448.41
2022-10-18T07:42:48.702Z,102467.94
2022-10-18T07:47:57.564Z,102482.88
2022-10-18T07:52:59.294Z,102471.50
2022-10-18T07:58:01.320Z,102457.41
2022-10-18T08:03:03.316Z,102452.63
2022-10-18T08:08:16.401Z,102462.41
2022-10-18T08:13:25.055Z,102462.69
2022-10-18T08:18:28.879Z,102468.00
2022-10-18T08:23:33.940Z,102471.94
2022-10-18T08:28:53.737Z,102483.19
2022-10-18T08:39:42.628Z,102468.53
2022-10-18T08:45:37.409Z,102451.19
2022-10-18T08:51:11.425Z,102458.72
2022-10-18T08:56:27.791Z,102457.84
2022-10-18T09:02:07.497Z,102459.00
2022-10-18T09:07:41.137Z,102461.53
2022-10-18T09:13:02.521Z,102472.44
2022-10-18T09:18:37.563Z,102495.19
2022-10-18T09:23:50.416Z,102495.28
2022-10-18T09:29:36.097Z,102482.44
2022-10-18T09:34:44.628Z,102489.13
2022-10-18T09:40:12.180Z,102497.16
2022-10-18T09:45:28.781Z,102498.13
2022-10-18T09:50:42.303Z,102504.16
2022-10-18T09:55:55.786Z,102521.25
2022-10-18T10:00:59.469Z,102520.44
2022-10-18T10:06:14.957Z,102526.38
2022-10-18T10:11:45.403Z,102519.78
2022-10-18T10:16:51.353Z,102533.94
2022-10-18T10:22:14.540Z,102541.94
2022-10-18T10:27:45.107Z,102541.06
2022-10-18T10:32:58.425Z,102544.66
2022-10-18T10:38:08.561Z,102552.25
2022-10-18T10:43:38.198Z,102542.16
2022-10-18T11:03:05.903Z,102540.19
2022-10-18T11:08:47.677Z,102539.41
2022-10-18T11:20:01.993Z,102544.56
2022-10-18T11:25:36.708Z,102550.25
2022-10-18T11:30:59.124Z,102547.09
2022-10-18T11:36:16.273Z,102550.50
2022-10-18T11:41:44.540Z,102550.38
2022-10-18T11:47:12.269Z,102553.84
2022-10-18T11:52:25.015Z,102537.63
2022-10-18T11:57:38.799Z,102542.00
2022-10-18T12:02:58.925Z,102545.28
2022-10-18T12:08:09.873Z,102554.00
2022-10-18T12:13:19.124Z,102546.75
2022-10-18T12:18:25.899Z,102548.69
2022-10-18T12:23:36.589Z,102544.38
2022-10-18T12:28:46.140Z,102542.00
2022-10-18T12:33:51.815Z,102548.25
2022-10-18T12:39:09.262Z,102540.78
2022-10-18T12:44:27.524Z,102553.94
2022-10-18T12:49:32.248Z,102557.34
2022-10-18T12:54:39.299Z,102552.69
2022-10-18T12:59:42.031Z,102550.28
2022-10-18T13:04:45.267Z,102546.66
2022-10-18T13:10:15.406Z,102554.16
2022-10-18T13:15:35.316Z,102548.66
2022-10-18T13:20:36.801Z,102545.34
2022-10-18T13:25:47.533Z,102542.59
2022-10-18T13:30:51.849Z,102540.91
2022-10-18T13:35:58.814Z,102537.50
2022-10-18T13:41:02.711Z,102540.56
2022-10-18T13:46:04.368Z,102541.38
2022-10-18T13:51:27.353Z,102553.59
2022-10-18T13:56:56.717Z,102556.38
2022-10-18T14:02:15.061Z,102542.84
2022-10-18T14:07:19.460Z,102561.94
2022-10-18T14:12:28.635Z,102559.50
2022-10-18T14:17:42.896Z,102570.16
2022-10-18T14:23:11.748Z,102567.03
2022-10-18T14:28:17.795Z,102572.59
2022-10-18T14:33:32.584Z,102573.25
2022-10-18T14:38:36.302Z,102574.25
2022-10-18T14:43:37.812Z,102569.66
2022-10-18T14:48:39.323Z,102571.97
2022-10-18T14:53:41.867Z,102570.88
2022-10-18T14:58:43.662Z,102565.69
2022-10-18T15:03:46.711Z,102565.69
2022-10-18T15:08:54.452Z,102571.63
2022-10-18T15:13:57.778Z,102568.59
2022-10-18T15:19:22.080Z,102571.50
2022-10-18T15:24:26.539Z,102563.13
2022-10-18T15:29:33.186Z,102577.75
2022-10-18T15:34:35.678Z,102575.75
2022-10-18T15:39:37.184Z,102578.00
2022-10-18T15:44:51.170Z,102565.19
2022-10-18T15:49:58.301Z,102564.88
2022-10-18T15:55:01.279Z,102566.06
2022-10-18T16:00:07.980Z,102566.50
2022-10-18T16:05:20.701Z,102563.44
2022-10-18T16:10:22.290Z,102558.63
2022-10-18T16:15:24.076Z,102557.31
2022-10-18T16:20:26.954Z,102553.19
2022-10-18T16:25:28.567Z,102565.06
2022-10-18T16:30:32.477Z,102567.22
2022-10-18T16:35:35.646Z,102572.06
2022-10-18T16:40:52.691Z,102581.97
2022-10-18T16:45:54.784Z,102604.09
2022-10-18T16:50:57.246Z,102599.56
2022-10-18T16:56:01.065Z,102593.47
2022-10-18T17:01:04.236Z,102605.06
2022-10-18T17:06:29.461Z,102605.13
2022-10-18T17:11:31.478Z,102605.19
2022-10-18T17:16:36.711Z,102612.03
2022-10-18T17:21:39.924Z,102630.22
2022-10-18T17:26:41.742Z,102626.56
2022-10-18T17:31:43.777Z,102629.84
2022-10-18T17:36:46.658Z,102643.38
2022-10-18T17:41:48.221Z,102651.44
2022-10-18T17:46:50.449Z,102655.66
2022-10-18T17:51:52.308Z,102653.38
2022-10-18T17:56:55.238Z,102662.47
2022-10-18T18:01:56.905Z,102660.94
2022-10-18T18:06:59.881Z,102651.38
2022-10-18T18:12:01.916Z,102652.50
2022-10-18T18:17:03.825Z,102656.53
2022-10-18T18:22:06.531Z,102666.38
2022-10-18T18:27:08.797Z,102671.63
2022-10-18T18:32:10.521Z,102669.13
2022-10-18T18:37:12.212Z,102677.88
2022-10-18T18:42:14.171Z,102678.69
2022-10-18T18:47:16.132Z,102683.13
2022-10-18T18:52:18.106Z,102681.38
2022-10-18T18:57:19.704Z,102686.56
2022-10-18T19:02:21.266Z,102692.69
2022-10-18T19:07:23.547Z,102689.19
2022-10-18T19:12:25.336Z,102687.38
2022-10-18T19:17:26.905Z,102689.88
2022-10-18T19:22:28.931Z,102697.69
2022-10-18T19:27:31.085Z,102701.13
2022-10-18T19:32:33.179Z,102693.19
2022-10-18T19:37:35.079Z,102701.94
2022-10-18T19:42:37.800Z,102690.25
2022-10-18T19:47:41.248Z,102682.31
2022-10-18T19:52:43.126Z,102683.22
2022-10-18T19:57:44.617Z,102687.44
2022-10-18T20:02:46.339Z,102689.09
2022-10-18T20:07:48.072Z,102688.06
2022-10-18T20:12:50.217Z,102694.09
2022-10-18T20:17:51.835Z,102692.28
2022-10-18T20:22:53.427Z,102687.03
2022-10-18T20:27:55.044Z,102693.03
2022-10-18T20:32:56.730Z,102691.28
2022-10-18T20:37:58.378Z,102693.75
2022-10-18T20:43:03.674Z,102696.50
2022-10-18T20:48:05.662Z,102692.78
2022-10-18T20:53:07.386Z,102686.66
2022-10-18T20:58:10.943Z,102693.53
2022-10-18T21:08:15.163Z,102689.06
2022-10-18T21:13:17.010Z,102694.38
2022-10-18T21:18:19.081Z,102700.31
2022-10-18T21:23:21.255Z,102716.19
2022-10-18T21:28:24.324Z,102710.81
2022-10-18T21:33:26.238Z,102709.84
2022-10-18T21:38:27.839Z,102707.09
2022-10-18T21:43:29.438Z,102718.81
2022-10-18T21:48:31.123Z,102700.44
2022-10-18T21:53:33.016Z,102706.69
2022-10-18T21:58:38.654Z,102704.88
2022-10-18T22:03:40.429Z,102693.50
2022-10-18T22:08:49.169Z,102693.50
2022-10-18T22:13:52.832Z,102694.25
2022-10-18T22:18:58.256Z,102688.91
2022-10-18T22:24:03.078Z,102688.03
2022-10-18T22:29:07.696Z,102682.75
2022-10-18T22:34:18.751Z,102671.44
2022-10-18T22:39:20.919Z,102670.63
2022-10-18T22:44:22.688Z,102673.34
2022-10-18T22:49:24.409Z,102665.66
2022-10-18T22:54:26.335Z,102662.28
2022-10-18T22:59:27.784Z,102663.41
2022-10-18T23:04:29.305Z,102658.50
2022-10-18T23:09:32.869Z,102664.94
2022-10-18T23:14:34.762Z,102674.91
2022-10-18T23:19:36.850Z,102676.97
2022-10-18T23:24:38.469Z,102679.28
2022-10-18T23:29:40.089Z,102690.56
2022-10-18T23:34:42.119Z,102684.56
2022-10-18T23:39:43.695Z,102691.53
2022-10-18T23:44:45.386Z,102685.06
2022-10-18T23:49:46.938Z,102685.56
2022-10-18T23:54:48.603Z,102675.53
2022-10-18T23:59:50.205Z,102682.03
